sensor_id;sensor_type;location;lat;lon;timestamp;pressure;altitude;pressure_sealevel;temperature;humidity
10638;BME280;47007;49.252;8.904;2024-01-10T00:00:22;100695.44;;;-3.22;58.95
10638;BME280;47007;49.252;8.904;2024-01-10T00:01:04;100728.38;;;-3.07;59.47
10638;BME280;47007;49.252;8.904;2024-01-10T00:01:46;100715.78;;;-3.15;59.21
10638;BME280;47007;49.252;8.904;2024-01-10T00:02:27;100684.44;;;-3.28;59.47
10638;BME280;47007;49.252;8.904;2024-01-10T00:03:09;100821.34;;;-2.46;59.35
10638;BME280;47007;49.252;8.904;2024-01-10T00:03:51;100787.13;;;-2.72;59.15
10638;BME280;47007;49.252;8.904;2024-01-10T00:04:33;100723.94;;;-3.05;59.02
10638;BME280;47007;49.252;8.904;2024-01-10T00:05:15;100680.75;;;-3.41;59.12
10638;BME280;47007;49.252;8.904;2024-01-10T00:06:01;100746.69;;;-2.93;59.49
10638;BME280;47007;49.252;8.904;2024-01-10T00:06:45;100799.69;;;-2.63;59.09
10638;BME280;47007;49.252;8.904;2024-01-10T00:07:27;100775.78;;;-2.69;59.53
10638;BME280;47007;49.252;8.904;2024-01-10T00:08:09;100694.41;;;-3.20;58.95
10638;BME280;47007;49.252;8.904;2024-01-10T00:08:51;100759.97;;;-2.82;59.34
10638;BME280;47007;49.252;8.904;2024-01-10T00:09:32;100709.38;;;-3.08;59.22
10638;BME280;47007;49.252;8.904;2024-01-10T00:10:14;100807.78;;;-2.51;59.20
10638;BME280;47007;49.252;8.904;2024-01-10T00:10:56;100745.00;;;-2.94;59.41
10638;BME280;47007;49.252;8.904;2024-01-10T00:11:40;100812.97;;;-2.51;59.22
10638;BME280;47007;49.252;8.904;2024-01-10T00:12:22;100758.59;;;-2.89;59.11
10638;BME280;47007;49.252;8.904;2024-01-10T00:13:04;100729.81;;;-3.02;59.29
10638;BME280;47007;49.252;8.904;2024-01-10T00:13:46;100681.00;;;-3.28;59.25
10638;BME280;47007;49.252;8.904;2024-01-10T00:14:27;100760.72;;;-2.80;59.24
10638;BME280;47007;49.252;8.904;2024-01-10T00:15:10;100815.63;;;-2.53;59.51
10638;BME280;47007;49.252;8.904;2024-01-10T00:15:52;100755.88;;;-2.86;59.31
10638;BME280;47007;49.252;8.904;2024-01-10T00:16:34;100789.44;;;-2.66;59.64
10638;BME280;47007;49.252;8.904;2024-01-10T00:17:15;100637.28;;;-3.53;59.22
10638;BME280;47007;49.252;8.904;2024-01-10T00:17:57;100778.44;;;-2.71;59.20
10638;BME280;47007;49.252;8.904;2024-01-10T00:18:39;100701.28;;;-3.19;59.86
10638;BME280;47007;49.252;8.904;2024-01-10T00:19:22;100747.31;;;-2.88;59.37
10638;BME280;47007;49.252;8.904;2024-01-10T00:20:04;100670.75;;;-3.31;59.65
10638;BME280;47007;49.252;8.904;2024-01-10T00:20:46;100755.16;;;-2.90;59.57
10638;BME280;47007;49.252;8.904;2024-01-10T00:21:28;100755.53;;;-2.80;59.21
10638;BME280;47007;49.252;8.904;2024-01-10T00:22:10;100760.72;;;-2.80;59.36
10638;BME280;47007;49.252;8.904;2024-01-10T00:22:52;100716.66;;;-2.97;58.92
10638;BME280;47007;49.252;8.904;2024-01-10T00:23:34;100780.13;;;-2.70;59.59
10638;BME280;47007;49.252;8.904;2024-01-10T00:24:16;100676.03;;;-3.33;59.55
10638;BME280;47007;49.252;8.904;2024-01-10T00:24:57;100645.44;;;-3.43;59.37
10638;BME280;47007;49.252;8.904;2024-01-10T00:25:39;100798.94;;;-2.47;59.08
10638;BME280;47007;49.252;8.904;2024-01-10T00:26:21;100750.50;;;-2.83;59.57
10638;BME280;47007;49.252;8.904;2024-01-10T00:27:03;100692.06;;;-3.07;59.18
10638;BME280;47007;49.252;8.904;2024-01-10T00:27:46;100748.31;;;-2.73;59.15
10638;BME280;47007;49.252;8.904;2024-01-10T00:28:28;100746.78;;;-2.77;59.27
10638;BME280;47007;49.252;8.904;2024-01-10T00:29:10;100751.75;;;-2.73;58.95
10638;BME280;47007;49.252;8.904;2024-01-10T00:29:52;100650.34;;;-3.37;59.17
10638;BME280;47007;49.252;8.904;2024-01-10T00:30:33;100816.31;;;-2.49;59.86
10638;BME280;47007;49.252;8.904;2024-01-10T00:31:15;100763.63;;;-2.69;59.04
10638;BME280;47007;49.252;8.904;2024-01-10T00:31:57;100683.19;;;-3.20;59.40
10638;BME280;47007;49.252;8.904;2024-01-10T00:32:41;100693.28;;;-3.14;59.13
10638;BME280;47007;49.252;8.904;2024-01-10T00:33:23;100799.72;;;-2.47;59.14
10638;BME280;47007;49.252;8.904;2024-01-10T00:34:05;100813.72;;;-2.49;59.26
10638;BME280;47007;49.252;8.904;2024-01-10T00:34:47;100682.47;;;-3.22;58.92
10638;BME280;47007;49.252;8.904;2024-01-10T00:35:28;100651.31;;;-3.40;59.13
10638;BME280;47007;49.252;8.904;2024-01-10T00:36:10;100765.94;;;-2.63;59.42
10638;BME280;47007;49.252;8.904;2024-01-10T00:36:52;100798.69;;;-2.43;59.34
10638;BME280;47007;49.252;8.904;2024-01-10T00:37:34;100656.38;;;-3.19;59.70
10638;BME280;47007;49.252;8.904;2024-01-10T00:38:15;100748.22;;;-2.72;58.87
10638;BME280;47007;49.252;8.904;2024-01-10T00:38:57;100715.66;;;-2.77;59.17
10638;BME280;47007;49.252;8.904;2024-01-10T00:39:39;100634.25;;;-3.27;58.93
10638;BME280;47007;49.252;8.904;2024-01-10T00:40:21;100679.56;;;-2.99;59.11
10638;BME280;47007;49.252;8.904;2024-01-10T00:41:03;100701.22;;;-2.83;58.93
10638;BME280;47007;49.252;8.904;2024-01-10T00:41:45;100631.66;;;-3.27;58.55
10638;BME280;47007;49.252;8.904;2024-01-10T00:42:26;100732.97;;;-2.61;59.19
10638;BME280;47007;49.252;8.904;2024-01-10T00:43:08;100753.00;;;-2.47;58.84
10638;BME280;47007;49.252;8.904;2024-01-10T00:43:50;100742.03;;;-2.52;58.75
10638;BME280;47007;49.252;8.904;2024-01-10T00:44:32;100792.63;;;-2.26;58.96
10638;BME280;47007;49.252;8.904;2024-01-10T00:45:13;100791.81;;;-2.27;59.11
10638;BME280;47007;49.252;8.904;2024-01-10T00:45:55;100799.03;;;-2.33;58.86
10638;BME280;47007;49.252;8.904;2024-01-10T00:46:37;100689.63;;;-2.93;58.72
10638;BME280;47007;49.252;8.904;2024-01-10T00:47:18;100675.59;;;-3.06;58.53
10638;BME280;47007;49.252;8.904;2024-01-10T00:48:00;100769.44;;;-2.46;58.77
10638;BME280;47007;49.252;8.904;2024-01-10T00:48:42;100624.19;;;-3.33;58.85
10638;BME280;47007;49.252;8.904;2024-01-10T00:49:24;100731.00;;;-2.73;58.92
10638;BME280;47007;49.252;8.904;2024-01-10T00:50:06;100666.31;;;-3.10;59.36
10638;BME280;47007;49.252;8.904;2024-01-10T00:50:48;100738.59;;;-2.70;59.24
10638;BME280;47007;49.252;8.904;2024-01-10T00:51:29;100797.28;;;-2.33;59.05
10638;BME280;47007;49.252;8.904;2024-01-10T00:52:11;100804.16;;;-2.32;58.51
10638;BME280;47007;49.252;8.904;2024-01-10T00:52:53;100726.41;;;-2.68;58.70
10638;BME280;47007;49.252;8.904;2024-01-10T00:53:35;100791.81;;;-2.27;58.67
10638;BME280;47007;49.252;8.904;2024-01-10T00:54:17;100773.03;;;-2.49;58.90
10638;BME280;47007;49.252;8.904;2024-01-10T00:54:58;100721.34;;;-2.71;58.79
10638;BME280;47007;49.252;8.904;2024-01-10T00:55:40;100812.16;;;-2.19;59.05
10638;BME280;47007;49.252;8.904;2024-01-10T00:56:22;100772.50;;;-2.38;58.87
10638;BME280;47007;49.252;8.904;2024-01-10T00:57:04;100739.66;;;-2.57;58.51
10638;BME280;47007;49.252;8.904;2024-01-10T00:57:48;100722.25;;;-2.72;58.90
10638;BME280;47007;49.252;8.904;2024-01-10T00:58:30;100781.34;;;-2.42;58.72
10638;BME280;47007;49.252;8.904;2024-01-10T00:59:11;100670.25;;;-3.03;58.73
10638;BME280;47007;49.252;8.904;2024-01-10T00:59:53;100763.41;;;-2.47;58.68
10638;BME280;47007;49.252;8.904;2024-01-10T01:00:35;100721.69;;;-2.77;58.55
10638;BME280;47007;49.252;8.904;2024-01-10T01:01:17;100742.66;;;-2.64;59.21
10638;BME280;47007;49.252;8.904;2024-01-10T01:01:59;100687.81;;;-2.91;58.67
10638;BME280;47007;49.252;8.904;2024-01-10T01:02:41;100729.63;;;-2.63;58.95
10638;BME280;47007;49.252;8.904;2024-01-10T01:03:22;100746.03;;;-2.62;58.53
10638;BME280;47007;49.252;8.904;2024-01-10T01:04:04;100652.09;;;-3.20;58.33
10638;BME280;47007;49.252;8.904;2024-01-10T01:04:46;100715.03;;;-2.82;58.52
10638;BME280;47007;49.252;8.904;2024-01-10T01:05:28;100656.44;;;-3.21;58.96
10638;BME280;47007;49.252;8.904;2024-01-10T01:06:10;100611.81;;;-3.45;58.75
10638;BME280;47007;49.252;8.904;2024-01-10T01:06:52;100678.94;;;-3.04;58.91
10638;BME280;47007;49.252;8.904;2024-01-10T01:07:36;100694.81;;;-2.93;58.83
10638;BME280;47007;49.252;8.904;2024-01-10T01:08:18;100770.88;;;-2.41;58.55
10638;BME280;47007;49.252;8.904;2024-01-10T01:09:00;100723.66;;;-2.65;58.59
10638;BME280;47007;49.252;8.904;2024-01-10T01:09:42;100717.63;;;-2.65;59.17
10638;BME280;47007;49.252;8.904;2024-01-10T01:10:23;100780.44;;;-2.24;58.56
10638;BME280;47007;49.252;8.904;2024-01-10T01:11:05;100753.56;;;-2.40;58.96
10638;BME280;47007;49.252;8.904;2024-01-10T01:11:47;100712.94;;;-2.59;59.18
10638;BME280;47007;49.252;8.904;2024-01-10T01:12:29;100702.06;;;-2.65;58.77
10638;BME280;47007;49.252;8.904;2024-01-10T01:13:10;100715.53;;;-2.59;59.04
10638;BME280;47007;49.252;8.904;2024-01-10T01:13:52;100781.69;;;-2.15;58.77
10638;BME280;47007;49.252;8.904;2024-01-10T01:14:34;100779.94;;;-2.15;58.42
10638;BME280;47007;49.252;8.904;2024-01-10T01:15:16;100798.41;;;-2.04;58.55
10638;BME280;47007;49.252;8.904;2024-01-10T01:15:58;100749.97;;;-2.38;58.47
10638;BME280;47007;49.252;8.904;2024-01-10T01:16:40;100809.94;;;-2.09;58.85
10638;BME280;47007;49.252;8.904;2024-01-10T01:17:22;100741.19;;;-2.53;58.19
10638;BME280;47007;49.252;8.904;2024-01-10T01:18:04;100810.97;;;-2.12;58.88
10638;BME280;47007;49.252;8.904;2024-01-10T01:18:46;100775.59;;;-2.32;58.83
10638;BME280;47007;49.252;8.904;2024-01-10T01:19:28;100779.88;;;-2.31;58.72
10638;BME280;47007;49.252;8.904;2024-01-10T01:20:10;100739.97;;;-2.45;58.30
10638;BME280;47007;49.252;8.904;2024-01-10T01:20:52;100749.44;;;-2.44;58.55
10638;BME280;47007;49.252;8.904;2024-01-10T01:21:34;100780.56;;;-2.27;58.37
10638;BME280;47007;49.252;8.904;2024-01-10T01:22:16;100736.22;;;-2.57;58.48
10638;BME280;47007;49.252;8.904;2024-01-10T01:22:57;100821.84;;;-2.05;59.06
10638;BME280;47007;49.252;8.904;2024-01-10T01:23:40;100793.00;;;-2.17;58.93
10638;BME280;47007;49.252;8.904;2024-01-10T01:24:23;100819.94;;;-2.02;58.28
10638;BME280;47007;49.252;8.904;2024-01-10T01:25:05;100777.97;;;-2.27;58.35
10638;BME280;47007;49.252;8.904;2024-01-10T01:25:47;100697.50;;;-2.77;58.48
10638;BME280;47007;49.252;8.904;2024-01-10T01:26:29;100811.53;;;-2.07;58.48
10638;BME280;47007;49.252;8.904;2024-01-10T01:27:11;100793.78;;;-2.14;58.33
10638;BME280;47007;49.252;8.904;2024-01-10T01:27:52;100810.78;;;-2.09;58.49
10638;BME280;47007;49.252;8.904;2024-01-10T01:28:34;100666.81;;;-2.86;58.37
10638;BME280;47007;49.252;8.904;2024-01-10T01:29:16;100709.78;;;-2.64;58.20
10638;BME280;47007;49.252;8.904;2024-01-10T01:29:58;100714.81;;;-2.61;58.35
10638;BME280;47007;49.252;8.904;2024-01-10T01:30:40;100669.50;;;-3.05;58.20
10638;BME280;47007;49.252;8.904;2024-01-10T01:31:22;100752.50;;;-2.54;58.23
10638;BME280;47007;49.252;8.904;2024-01-10T01:32:03;100770.66;;;-2.36;58.47
10638;BME280;47007;49.252;8.904;2024-01-10T01:32:46;100725.69;;;-2.71;58.40
10638;BME280;47007;49.252;8.904;2024-01-10T01:33:27;100813.94;;;-2.20;58.69
10638;BME280;47007;49.252;8.904;2024-01-10T01:34:09;100776.84;;;-2.39;58.58
10638;BME280;47007;49.252;8.904;2024-01-10T01:34:51;100709.53;;;-2.76;58.75
10638;BME280;47007;49.252;8.904;2024-01-10T01:35:33;100750.66;;;-2.51;58.61
10638;BME280;47007;49.252;8.904;2024-01-10T01:36:15;100763.56;;;-2.50;58.06
10638;BME280;47007;49.252;8.904;2024-01-10T01:36:56;100742.25;;;-2.57;58.19
10638;BME280;47007;49.252;8.904;2024-01-10T01:37:38;100753.97;;;-2.48;58.60
10638;BME280;47007;49.252;8.904;2024-01-10T01:38:20;100802.56;;;-2.17;58.26
10638;BME280;47007;49.252;8.904;2024-01-10T01:39:02;100802.41;;;-2.14;58.07
10638;BME280;47007;49.252;8.904;2024-01-10T01:39:44;100764.16;;;-2.45;58.27
10638;BME280;47007;49.252;8.904;2024-01-10T01:40:26;100810.66;;;-2.23;58.38
10638;BME280;47007;49.252;8.904;2024-01-10T01:41:08;100740.91;;;-2.64;57.78
10638;BME280;47007;49.252;8.904;2024-01-10T01:41:50;100747.78;;;-2.63;58.16
10638;BME280;47007;49.252;8.904;2024-01-10T01:42:31;100793.13;;;-2.35;57.93
10638;BME280;47007;49.252;8.904;2024-01-10T01:43:26;100812.78;;;-2.14;58.32
10638;BME280;47007;49.252;8.904;2024-01-10T01:44:08;100796.16;;;-2.27;58.51
10638;BME280;47007;49.252;8.904;2024-01-10T01:44:50;100666.75;;;-3.02;58.18
10638;BME280;47007;49.252;8.904;2024-01-10T01:45:32;100778.28;;;-2.33;58.23
10638;BME280;47007;49.252;8.904;2024-01-10T01:46:13;100669.19;;;-2.99;58.23
10638;BME280;47007;49.252;8.904;2024-01-10T01:46:56;100681.25;;;-2.98;58.05
10638;BME280;47007;49.252;8.904;2024-01-10T01:47:39;100757.91;;;-2.58;58.48
10638;BME280;47007;49.252;8.904;2024-01-10T01:48:22;100807.31;;;-2.25;58.91
10638;BME280;47007;49.252;8.904;2024-01-10T01:49:06;100803.09;;;-2.28;58.70
10638;BME280;47007;49.252;8.904;2024-01-10T01:49:48;100781.34;;;-2.42;58.67
10638;BME280;47007;49.252;8.904;2024-01-10T01:50:30;100797.06;;;-2.28;58.76
10638;BME280;47007;49.252;8.904;2024-01-10T01:51:14;100786.38;;;-2.39;58.56
10638;BME280;47007;49.252;8.904;2024-01-10T01:51:56;100668.13;;;-3.12;58.67
10638;BME280;47007;49.252;8.904;2024-01-10T01:52:38;100802.94;;;-2.25;58.16
10638;BME280;47007;49.252;8.904;2024-01-10T01:53:20;100761.88;;;-2.51;58.64
10638;BME280;47007;49.252;8.904;2024-01-10T01:54:06;100819.97;;;-2.19;58.39
10638;BME280;47007;49.252;8.904;2024-01-10T01:54:47;100753.34;;;-2.53;58.46
10638;BME280;47007;49.252;8.904;2024-01-10T01:55:29;100732.50;;;-2.69;58.52
10638;BME280;47007;49.252;8.904;2024-01-10T01:56:13;100676.28;;;-3.03;58.63
10638;BME280;47007;49.252;8.904;2024-01-10T01:56:56;100803.88;;;-2.26;58.25
10638;BME280;47007;49.252;8.904;2024-01-10T01:57:41;100816.16;;;-2.29;58.00
10638;BME280;47007;49.252;8.904;2024-01-10T01:58:25;100729.47;;;-2.77;57.99
10638;BME280;47007;49.252;8.904;2024-01-10T01:59:10;100769.75;;;-2.53;58.21
10638;BME280;47007;49.252;8.904;2024-01-10T01:59:52;100767.91;;;-2.50;58.63
10638;BME280;47007;49.252;8.904;2024-01-10T02:00:35;100700.78;;;-2.91;58.56
10638;BME280;47007;49.252;8.904;2024-01-10T02:01:18;100736.00;;;-2.70;58.07
10638;BME280;47007;49.252;8.904;2024-01-10T02:02:04;100744.56;;;-2.68;58.35
10638;BME280;47007;49.252;8.904;2024-01-10T02:02:48;100801.50;;;-2.30;58.44
10638;BME280;47007;49.252;8.904;2024-01-10T02:03:31;100794.63;;;-2.31;58.93
10638;BME280;47007;49.252;8.904;2024-01-10T02:04:13;100681.63;;;-3.06;58.17
10638;BME280;47007;49.252;8.904;2024-01-10T02:04:58;100784.09;;;-2.45;58.21
10638;BME280;47007;49.252;8.904;2024-01-10T02:05:41;100670.72;;;-3.12;58.30
10638;BME280;47007;49.252;8.904;2024-01-10T02:06:23;100726.16;;;-2.80;58.50
10638;BME280;47007;49.252;8.904;2024-01-10T02:07:04;100714.78;;;-2.95;58.44
10638;BME280;47007;49.252;8.904;2024-01-10T02:07:46;100704.50;;;-2.97;58.90
10638;BME280;47007;49.252;8.904;2024-01-10T02:08:32;100768.69;;;-2.66;58.99
10638;BME280;47007;49.252;8.904;2024-01-10T02:09:14;100713.81;;;-2.93;58.78
10638;BME280;47007;49.252;8.904;2024-01-10T02:09:56;100705.94;;;-2.91;58.92
10638;BME280;47007;49.252;8.904;2024-01-10T02:10:38;100725.34;;;-2.81;58.60
10638;BME280;47007;49.252;8.904;2024-01-10T02:11:20;100710.00;;;-2.85;58.80
10638;BME280;47007;49.252;8.904;2024-01-10T02:12:03;100795.59;;;-2.34;58.49
10638;BME280;47007;49.252;8.904;2024-01-10T02:12:45;100653.69;;;-3.18;58.91
10638;BME280;47007;49.252;8.904;2024-01-10T02:13:28;100796.06;;;-2.26;58.98
10638;BME280;47007;49.252;8.904;2024-01-10T02:14:10;100708.69;;;-2.77;58.78
10638;BME280;47007;49.252;8.904;2024-01-10T02:14:52;100716.28;;;-2.72;58.23
10638;BME280;47007;49.252;8.904;2024-01-10T02:15:35;100701.75;;;-2.76;58.39
10638;BME280;47007;49.252;8.904;2024-01-10T02:16:21;100718.63;;;-2.68;58.61
10638;BME280;47007;49.252;8.904;2024-01-10T02:17:04;100795.94;;;-2.23;58.29
10638;BME280;47007;49.252;8.904;2024-01-10T02:17:46;100767.38;;;-2.40;57.95
10638;BME280;47007;49.252;8.904;2024-01-10T02:18:28;100684.38;;;-2.92;57.97
10638;BME280;47007;49.252;8.904;2024-01-10T02:19:22;100800.34;;;-2.25;57.78
10638;BME280;47007;49.252;8.904;2024-01-10T02:20:09;100756.31;;;-2.43;58.00
10638;BME280;47007;49.252;8.904;2024-01-10T02:20:51;100716.72;;;-2.81;58.22
10638;BME280;47007;49.252;8.904;2024-01-10T02:21:35;100660.09;;;-3.08;57.66
10638;BME280;47007;49.252;8.904;2024-01-10T02:22:17;100670.63;;;-2.94;58.39
10638;BME280;47007;49.252;8.904;2024-01-10T02:22:59;100716.94;;;-2.69;57.98
10638;BME280;47007;49.252;8.904;2024-01-10T02:23:40;100718.31;;;-2.62;57.94
10638;BME280;47007;49.252;8.904;2024-01-10T02:24:22;100740.22;;;-2.50;58.48
10638;BME280;47007;49.252;8.904;2024-01-10T02:25:06;100672.31;;;-2.93;57.75
10638;BME280;47007;49.252;8.904;2024-01-10T02:25:49;100627.19;;;-3.23;58.23
10638;BME280;47007;49.252;8.904;2024-01-10T02:26:31;100740.44;;;-2.55;58.10
10638;BME280;47007;49.252;8.904;2024-01-10T02:27:12;100777.00;;;-2.42;58.13
10638;BME280;47007;49.252;8.904;2024-01-10T02:27:54;100738.31;;;-2.64;58.14
10638;BME280;47007;49.252;8.904;2024-01-10T02:28:36;100721.28;;;-2.69;58.05
10638;BME280;47007;49.252;8.904;2024-01-10T02:29:18;100782.41;;;-2.29;58.21
10638;BME280;47007;49.252;8.904;2024-01-10T02:30:02;100676.66;;;-2.93;58.61
10638;BME280;47007;49.252;8.904;2024-01-10T02:30:44;100663.94;;;-2.98;58.49
10638;BME280;47007;49.252;8.904;2024-01-10T02:31:26;100684.16;;;-2.87;58.24
10638;BME280;47007;49.252;8.904;2024-01-10T02:32:08;100778.81;;;-2.27;58.20
10638;BME280;47007;49.252;8.904;2024-01-10T02:32:50;100698.41;;;-2.78;58.39
10638;BME280;47007;49.252;8.904;2024-01-10T02:33:32;100765.47;;;-2.36;58.19
10638;BME280;47007;49.252;8.904;2024-01-10T02:34:14;100728.44;;;-2.57;58.38
10638;BME280;47007;49.252;8.904;2024-01-10T02:34:56;100765.47;;;-2.36;58.55
10638;BME280;47007;49.252;8.904;2024-01-10T02:35:37;100789.78;;;-2.22;58.23
10638;BME280;47007;49.252;8.904;2024-01-10T02:36:19;100779.59;;;-2.25;58.57
10638;BME280;47007;49.252;8.904;2024-01-10T02:37:01;100746.47;;;-2.37;58.13
10638;BME280;47007;49.252;8.904;2024-01-10T02:37:43;100795.44;;;-2.13;57.96
10638;BME280;47007;49.252;8.904;2024-01-10T02:38:24;100790.09;;;-2.10;58.44
10638;BME280;47007;49.252;8.904;2024-01-10T02:39:06;100737.97;;;-2.40;57.97
10638;BME280;47007;49.252;8.904;2024-01-10T02:39:48;100729.34;;;-2.41;58.34
10638;BME280;47007;49.252;8.904;2024-01-10T02:40:30;100707.69;;;-2.57;58.62
10638;BME280;47007;49.252;8.904;2024-01-10T02:41:11;100700.91;;;-2.60;58.21
10638;BME280;47007;49.252;8.904;2024-01-10T02:41:53;100733.09;;;-2.46;58.55
10638;BME280;47007;49.252;8.904;2024-01-10T02:42:35;100670.84;;;-2.81;58.57
10638;BME280;47007;49.252;8.904;2024-01-10T02:43:17;100752.09;;;-2.46;58.04
10638;BME280;47007;49.252;8.904;2024-01-10T02:43:58;100676.88;;;-2.80;58.36
10638;BME280;47007;49.252;8.904;2024-01-10T02:44:41;100740.56;;;-2.40;58.09
10638;BME280;47007;49.252;8.904;2024-01-10T02:45:23;100790.34;;;-2.15;57.73
10638;BME280;47007;49.252;8.904;2024-01-10T02:46:04;100732.34;;;-2.48;58.03
10638;BME280;47007;49.252;8.904;2024-01-10T02:46:46;100770.19;;;-2.27;58.23
10638;BME280;47007;49.252;8.904;2024-01-10T02:47:28;100714.41;;;-2.70;57.97
10638;BME280;47007;49.252;8.904;2024-01-10T02:48:10;100694.97;;;-2.79;58.26
10638;BME280;47007;49.252;8.904;2024-01-10T02:48:53;100772.66;;;-2.41;58.37
10638;BME280;47007;49.252;8.904;2024-01-10T02:49:35;100708.56;;;-2.74;58.19
10638;BME280;47007;49.252;8.904;2024-01-10T02:50:17;100675.97;;;-2.97;57.91
10638;BME280;47007;49.252;8.904;2024-01-10T02:50:59;100672.41;;;-3.11;57.88
10638;BME280;47007;49.252;8.904;2024-01-10T02:51:41;100672.72;;;-3.00;58.22
10638;BME280;47007;49.252;8.904;2024-01-10T02:52:22;100615.13;;;-3.41;58.45
10638;BME280;47007;49.252;8.904;2024-01-10T02:53:04;100760.81;;;-2.64;58.38
10638;BME280;47007;49.252;8.904;2024-01-10T02:53:48;100701.16;;;-2.99;58.60
10638;BME280;47007;49.252;8.904;2024-01-10T02:54:29;100712.97;;;-2.93;58.48
10638;BME280;47007;49.252;8.904;2024-01-10T02:55:11;100635.31;;;-3.31;58.42
10638;BME280;47007;49.252;8.904;2024-01-10T02:55:53;100732.81;;;-2.75;58.63
10638;BME280;47007;49.252;8.904;2024-01-10T02:56:35;100702.06;;;-3.00;58.66
10638;BME280;47007;49.252;8.904;2024-01-10T02:57:16;100533.16;;;-3.95;58.87
10638;BME280;47007;49.252;8.904;2024-01-10T02:57:58;100724.28;;;-2.77;58.42
10638;BME280;47007;49.252;8.904;2024-01-10T02:58:40;100708.25;;;-2.85;58.54
10638;BME280;47007;49.252;8.904;2024-01-10T02:59:22;100772.03;;;-2.46;59.10
10638;BME280;47007;49.252;8.904;2024-01-10T03:00:04;100745.63;;;-2.55;58.99
10638;BME280;47007;49.252;8.904;2024-01-10T03:00:47;100627.53;;;-3.31;58.92
10638;BME280;47007;49.252;8.904;2024-01-10T03:01:28;100686.44;;;-2.98;58.54
10638;BME280;47007;49.252;8.904;2024-01-10T03:02:10;100663.09;;;-3.15;58.32
10638;BME280;47007;49.252;8.904;2024-01-10T03:02:52;100599.19;;;-3.51;58.40
10638;BME280;47007;49.252;8.904;2024-01-10T03:03:34;100675.59;;;-3.06;58.37
10638;BME280;47007;49.252;8.904;2024-01-10T03:04:15;100577.06;;;-3.58;58.47
10638;BME280;47007;49.252;8.904;2024-01-10T03:04:57;100634.03;;;-3.22;58.80
10638;BME280;47007;49.252;8.904;2024-01-10T03:05:39;100724.28;;;-2.60;58.81
10638;BME280;47007;49.252;8.904;2024-01-10T03:06:21;100563.06;;;-3.54;58.60
10638;BME280;47007;49.252;8.904;2024-01-10T03:07:03;100727.69;;;-2.59;58.91
10638;BME280;47007;49.252;8.904;2024-01-10T03:07:44;100775.09;;;-2.38;58.76
10638;BME280;47007;49.252;8.904;2024-01-10T03:08:26;100731.03;;;-2.57;58.91
10638;BME280;47007;49.252;8.904;2024-01-10T03:09:08;100752.19;;;-2.47;58.55
10638;BME280;47007;49.252;8.904;2024-01-10T03:09:50;100753.13;;;-2.48;58.63
10638;BME280;47007;49.252;8.904;2024-01-10T03:10:32;100678.66;;;-2.98;58.87
10638;BME280;47007;49.252;8.904;2024-01-10T03:11:14;100676.97;;;-2.99;58.69
10638;BME280;47007;49.252;8.904;2024-01-10T03:11:55;100722.13;;;-2.69;58.72
10638;BME280;47007;49.252;8.904;2024-01-10T03:12:37;100676.97;;;-2.99;58.95
10638;BME280;47007;49.252;8.904;2024-01-10T03:13:19;100725.56;;;-2.68;59.23
10638;BME280;47007;49.252;8.904;2024-01-10T03:14:08;100693.44;;;-2.83;59.02
10638;BME280;47007;49.252;8.904;2024-01-10T03:14:50;100685.81;;;-2.86;58.79
10638;BME280;47007;49.252;8.904;2024-01-10T03:15:32;100656.66;;;-3.08;59.19
10638;BME280;47007;49.252;8.904;2024-01-10T03:16:14;100711.31;;;-2.77;59.23
10638;BME280;47007;49.252;8.904;2024-01-10T03:16:56;100637.22;;;-3.17;58.63
10638;BME280;47007;49.252;8.904;2024-01-10T03:17:41;100676.72;;;-2.95;58.81
10638;BME280;47007;49.252;8.904;2024-01-10T03:18:23;100755.31;;;-2.41;59.22
10638;BME280;47007;49.252;8.904;2024-01-10T03:19:05;100684.75;;;-2.82;59.16
10638;BME280;47007;49.252;8.904;2024-01-10T03:19:47;100748.03;;;-2.34;59.01
10638;BME280;47007;49.252;8.904;2024-01-10T03:20:29;100651.72;;;-2.96;58.53
10638;BME280;47007;49.252;8.904;2024-01-10T03:21:11;100650.34;;;-3.03;58.93
10638;BME280;47007;49.252;8.904;2024-01-10T03:21:53;100573.06;;;-3.46;58.82
10638;BME280;47007;49.252;8.904;2024-01-10T03:22:35;100617.66;;;-3.22;58.49
10638;BME280;47007;49.252;8.904;2024-01-10T03:23:17;100731.72;;;-2.54;58.77
10638;BME280;47007;49.252;8.904;2024-01-10T03:24:00;100668.34;;;-2.82;59.23
10638;BME280;47007;49.252;8.904;2024-01-10T03:24:43;100743.47;;;-2.46;58.81
10638;BME280;47007;49.252;8.904;2024-01-10T03:25:25;100671.75;;;-2.82;58.56
10638;BME280;47007;49.252;8.904;2024-01-10T03:26:09;100651.34;;;-3.05;58.79
10638;BME280;47007;49.252;8.904;2024-01-10T03:26:51;100748.59;;;-2.45;59.19
10638;BME280;47007;49.252;8.904;2024-01-10T03:27:33;100616.41;;;-3.33;58.69
10638;BME280;47007;49.252;8.904;2024-01-10T03:28:17;100653.16;;;-3.07;59.49
10638;BME280;47007;49.252;8.904;2024-01-10T03:28:59;100646.00;;;-3.19;59.10
10638;BME280;47007;49.252;8.904;2024-01-10T03:29:42;100703.28;;;-2.90;59.14
10638;BME280;47007;49.252;8.904;2024-01-10T03:30:24;100756.84;;;-2.54;59.58
10638;BME280;47007;49.252;8.904;2024-01-10T03:31:06;100698.94;;;-2.89;59.24
10638;BME280;47007;49.252;8.904;2024-01-10T03:31:48;100651.88;;;-3.16;59.69
10638;BME280;47007;49.252;8.904;2024-01-10T03:32:30;100625.72;;;-3.29;58.98
10638;BME280;47007;49.252;8.904;2024-01-10T03:33:11;100668.19;;;-2.97;59.42
10638;BME280;47007;49.252;8.904;2024-01-10T03:33:53;100727.31;;;-2.69;59.21
10638;BME280;47007;49.252;8.904;2024-01-10T03:34:35;100599.63;;;-3.43;59.06
10638;BME280;47007;49.252;8.904;2024-01-10T03:35:17;100748.66;;;-2.46;59.73
10638;BME280;47007;49.252;8.904;2024-01-10T03:35:59;100649.34;;;-3.17;59.65
10638;BME280;47007;49.252;8.904;2024-01-10T03:36:41;100728.84;;;-2.65;59.37
10638;BME280;47007;49.252;8.904;2024-01-10T03:37:22;100613.22;;;-3.38;59.57
10638;BME280;47007;49.252;8.904;2024-01-10T03:38:04;100605.31;;;-3.35;58.89
10638;BME280;47007;49.252;8.904;2024-01-10T03:38:46;100703.44;;;-2.75;59.20
10638;BME280;47007;49.252;8.904;2024-01-10T03:39:28;100692.84;;;-2.88;59.24
10638;BME280;47007;49.252;8.904;2024-01-10T03:40:09;100760.13;;;-2.50;59.53
10638;BME280;47007;49.252;8.904;2024-01-10T03:40:51;100622.44;;;-3.32;59.64